Time;durP1;ratioP1;P1;durP2;ratioP2;P2;SDS_P1;SDS_P2;PMS_P1;PMS_P2;Temp;Humidity;BMP_temperature;BMP_pressure;BME280_temperature;BME280_humidity;BME280_pressure;Samples;Min_cycle;Max_cycle;Signal;HPM_P1;HPM_P2
2022/05/22 00:00:12;;;;;;;;;10.00;9.67;;;;;23.62;40.44;100486.13;110243;1263;19520;-51
2022/05/22 00:03:00;;;;;;;;;7.00;7.00;;;;;23.63;40.29;100486.38;110243;1264;18680;-49
2022/05/22 00:05:27;;;;;;;;;10.67;8.00;;;;;23.63;40.37;100483.46;110306;1263;20678;-52
2022/05/22 00:07:54;;;;;;;;;6.67;6.67;;;;;23.63;40.32;100482.54;110274;1264;19574;-48
2022/05/22 00:10:21;;;;;;;;;7.00;7.00;;;;;23.63;40.27;100483.26;110278;1264;19063;-53
2022/05/22 00:12:49;;;;;;;;;9.00;7.00;;;;;23.62;40.38;100481.52;110280;1264;18818;-49
2022/05/22 00:15:16;;;;;;;;;7.00;7.00;;;;;23.63;40.36;100480.94;110322;1264;19521;-49
2022/05/22 00:17:43;;;;;;;;;8.67;8.00;;;;;23.62;40.27;100478.24;110322;1264;22268;-50
2022/05/22 00:20:11;;;;;;;;;8.67;7.00;;;;;23.62;40.23;100483.55;110312;1263;18809;-50
2022/05/22 00:22:38;;;;;;;;;9.33;7.67;;;;;23.62;40.21;100480.98;110288;1264;19793;-51
2022/05/22 00:25:06;;;;;;;;;8.67;7.67;;;;;23.61;40.23;100482.55;110300;1263;22618;-49
2022/05/22 00:27:33;;;;;;;;;7.00;6.00;;;;;23.61;40.22;100487.70;110287;1263;18776;-53
2022/05/22 00:30:00;;;;;;;;;7.00;6.00;;;;;23.62;40.23;100481.60;110293;1264;19828;-51
2022/05/22 00:32:28;;;;;;;;;7.50;7.00;;;;;23.62;40.22;100488.35;110332;1263;18463;-50
2022/05/22 00:34:55;;;;;;;;;9.67;7.67;;;;;23.62;40.20;100484.90;110298;1263;19144;-50
2022/05/22 00:37:23;;;;;;;;;9.33;7.00;;;;;23.62;40.23;100483.55;110247;1263;19877;-51
2022/05/22 00:39:50;;;;;;;;;11.00;9.00;;;;;23.62;40.30;100482.32;110282;1264;18521;-50
2022/05/22 00:42:18;;;;;;;;;7.00;7.00;;;;;23.62;40.30;100484.17;110276;1264;21136;-50
2022/05/22 00:44:45;;;;;;;;;7.33;7.33;;;;;23.62;40.28;100481.43;110342;1263;19543;-52
2022/05/22 00:47:12;;;;;;;;;6.67;6.67;;;;;23.61;40.26;100481.30;110287;1263;18569;-50
2022/05/22 00:49:42;;;;;;;;;8.00;7.67;;;;;23.62;40.23;100483.11;110316;1264;22320;-50
2022/05/22 00:52:09;;;;;;;;;8.00;7.00;;;;;23.61;40.33;100486.94;110303;1264;19480;-50
2022/05/22 00:54:36;;;;;;;;;6.00;6.00;;;;;23.62;40.11;100488.96;110296;1264;18415;-52
2022/05/22 00:57:04;;;;;;;;;9.33;8.00;;;;;23.62;40.11;100488.04;110304;1263;21664;-49
2022/05/22 00:59:31;;;;;;;;;6.33;6.33;;;;;23.61;40.16;100488.25;110350;1263;19486;-49
2022/05/22 01:01:58;;;;;;;;;8.33;7.00;;;;;23.61;40.04;100483.91;110264;1264;19870;-50
2022/05/22 01:04:25;;;;;;;;;6.33;6.33;;;;;23.60;40.05;100484.35;110316;1264;18851;-51
2022/05/22 01:06:52;;;;;;;;;7.00;6.00;;;;;23.62;40.21;100481.98;110315;1264;19502;-50
2022/05/22 01:09:20;;;;;;;;;6.00;6.00;;;;;23.62;40.10;100486.39;110269;1264;18443;-50
2022/05/22 01:11:47;;;;;;;;;6.33;6.33;;;;;23.62;40.20;100482.40;110287;1264;18840;-51
2022/05/22 01:14:14;;;;;;;;;9.33;9.00;;;;;23.61;40.13;100484.80;110310;1264;19510;-50
2022/05/22 01:16:41;;;;;;;;;6.67;6.00;;;;;23.61;40.00;100484.27;110282;1263;18451;-50
2022/05/22 01:19:09;;;;;;;;;6.67;6.67;;;;;23.61;40.25;100489.38;110287;1264;23000;-49
2022/05/22 01:21:36;;;;;;;;;8.00;6.00;;;;;23.61;40.13;100489.16;110295;1263;22234;-51
2022/05/22 01:24:03;;;;;;;;;6.00;6.00;;;;;23.60;40.18;100490.37;110306;1264;20641;-50
2022/05/22 01:26:30;;;;;;;;;6.33;6.00;;;;;23.61;40.12;100489.79;110320;1264;18847;-50
2022/05/22 01:28:58;;;;;;;;;7.00;6.67;;;;;23.60;40.08;100488.19;110291;1263;20894;-51
2022/05/22 01:31:25;;;;;;;;;5.50;5.50;;;;;23.60;40.13;100487.84;110291;1264;18471;-46
2022/05/22 01:33:52;;;;;;;;;8.00;6.50;;;;;23.60;40.19;100486.78;110270;1263;18903;-48
2022/05/22 01:36:20;;;;;;;;;7.33;6.67;;;;;23.60;40.12;100486.91;110278;1263;19642;-50
2022/05/22 01:38:47;;;;;;;;;6.33;6.00;;;;;23.60;40.10;100489.06;110311;1264;18741;-53
2022/05/22 01:41:14;;;;;;;;;6.00;6.00;;;;;23.61;40.23;100490.16;110325;1263;18962;-50
2022/05/22 01:43:42;;;;;;;;;6.00;6.00;;;;;23.61;40.03;100485.00;110318;1263;19470;-51
2022/05/22 01:46:09;;;;;;;;;6.67;6.67;;;;;23.60;39.95;100481.48;110294;1263;18934;-50
2022/05/22 01:48:36;;;;;;;;;8.00;6.67;;;;;23.60;39.99;100482.62;110311;1264;19040;-50
2022/05/22 01:51:03;;;;;;;;;7.00;6.00;;;;;23.59;40.10;100477.90;110291;1264;19629;-50
2022/05/22 01:53:31;;;;;;;;;6.67;6.33;;;;;23.59;40.03;100479.95;110326;1264;22210;-49
2022/05/22 01:55:58;;;;;;;;;7.67;6.67;;;;;23.60;40.06;100480.23;110285;1264;18716;-51
2022/05/22 01:58:25;;;;;;;;;10.00;10.00;;;;;23.59;40.09;100476.63;110286;1263;19549;-51
2022/05/22 02:00:52;;;;;;;;;6.00;6.00;;;;;23.59;39.98;100475.37;110285;1263;22384;-50
2022/05/22 02:03:19;;;;;;;;;6.67;6.67;;;;;23.60;39.92;100476.96;110312;1263;20038;-49
2022/05/22 02:05:47;;;;;;;;;7.50;7.50;;;;;23.60;39.93;100476.05;110347;1263;19658;-49
2022/05/22 02:08:22;;;;;;;;;6.67;6.00;;;;;23.60;39.81;100480.77;110277;1263;18406;-53
2022/05/22 02:10:50;;;;;;;;;7.00;5.67;;;;;23.60;39.92;100479.48;110281;1264;21906;-51
2022/05/22 02:13:18;;;;;;;;;10.00;9.50;;;;;23.60;39.92;100482.71;110304;1263;19539;-50
2022/05/22 02:15:46;;;;;;;;;8.33;7.33;;;;;23.61;39.88;100482.13;110268;1264;18706;-51
2022/05/22 02:18:13;;;;;;;;;8.67;6.67;;;;;23.59;39.77;100486.64;110303;1263;18833;-50
2022/05/22 02:20:40;;;;;;;;;6.00;6.00;;;;;23.59;39.76;100488.67;110311;1263;20089;-50
2022/05/22 02:23:08;;;;;;;;;7.67;7.67;;;;;23.59;39.93;100489.77;110300;1263;19805;-50
2022/05/22 02:25:35;;;;;;;;;4.33;4.33;;;;;23.59;39.98;100489.13;110299;1264;18812;-50
2022/05/22 02:28:02;;;;;;;;;7.00;6.00;;;;;23.59;39.92;100493.80;110305;1264;19630;-50
2022/05/22 02:30:29;;;;;;;;;7.00;7.00;;;;;23.59;39.78;100497.77;110305;1264;19916;-50
2022/05/22 02:32:56;;;;;;;;;6.67;6.67;;;;;23.60;40.03;100501.21;110287;1263;19068;-48
2022/05/22 02:35:24;;;;;;;;;6.33;6.33;;;;;23.59;39.92;100502.73;110330;1264;20051;-50
2022/05/22 02:37:51;;;;;;;;;6.50;4.00;;;;;23.60;39.90;100503.74;110290;1263;18655;-50
2022/05/22 02:40:18;;;;;;;;;9.33;6.67;;;;;23.60;39.89;100506.68;110288;1263;18789;-50
2022/05/22 02:42:46;;;;;;;;;6.33;6.33;;;;;23.60;39.84;100502.62;110282;1264;19504;-50
2022/05/22 02:45:13;;;;;;;;;6.67;6.67;;;;;23.59;39.72;100496.51;110316;1263;18329;-51
2022/05/22 02:47:41;;;;;;;;;6.00;5.50;;;;;23.59;39.83;100501.25;110355;1263;18686;-50
2022/05/22 02:50:08;;;;;;;;;5.67;5.67;;;;;23.59;39.88;100503.98;110304;1264;19883;-50
2022/05/22 02:52:35;;;;;;;;;6.67;6.00;;;;;23.59;39.74;100504.54;110286;1264;18671;-50
2022/05/22 02:55:02;;;;;;;;;6.00;6.00;;;;;23.59;39.91;100507.52;110299;1263;20112;-50
2022/05/22 02:57:30;;;;;;;;;6.00;5.67;;;;;23.59;39.86;100511.18;110296;1264;20774;-51
2022/05/22 02:59:57;;;;;;;;;6.33;6.33;;;;;23.59;39.87;100510.09;110302;1263;18519;-50
2022/05/22 03:02:24;;;;;;;;;7.00;7.00;;;;;23.58;39.76;100510.38;110316;1264;21005;-51
2022/05/22 03:04:51;;;;;;;;;7.33;7.33;;;;;23.58;39.69;100505.41;110289;1264;22214;-49
2022/05/22 03:07:19;;;;;;;;;7.50;6.50;;;;;23.59;39.89;100491.86;110275;1264;18601;-51
2022/05/22 03:09:46;;;;;;;;;7.00;6.67;;;;;23.58;39.84;100494.27;110307;1264;18762;-52
2022/05/22 03:12:13;;;;;;;;;5.67;5.67;;;;;23.59;39.64;100487.27;110309;1264;20071;-49
2022/05/22 03:14:41;;;;;;;;;6.67;5.67;;;;;23.59;39.77;100487.95;110344;1264;18595;-49
2022/05/22 03:17:08;;;;;;;;;7.00;6.00;;;;;23.59;39.66;100485.47;110304;1263;18845;-50
2022/05/22 03:19:35;;;;;;;;;6.33;6.00;;;;;23.58;39.72;100480.59;110284;1264;19507;-50
2022/05/22 03:22:02;;;;;;;;;6.33;5.33;;;;;23.58;39.72;100482.39;110271;1264;20231;-50
2022/05/22 03:24:29;;;;;;;;;6.00;6.00;;;;;23.58;39.66;100478.39;110322;1263;21402;-50
2022/05/22 03:26:57;;;;;;;;;8.33;6.33;;;;;23.59;39.65;100477.39;110292;1264;19530;-49
2022/05/22 03:29:24;;;;;;;;;6.00;6.00;;;;;23.59;39.70;100470.52;110315;1263;18908;-51
2022/05/22 03:31:51;;;;;;;;;5.00;5.00;;;;;23.59;39.68;100469.59;110283;1264;18858;-50
2022/05/22 03:34:19;;;;;;;;;5.67;5.67;;;;;23.59;39.74;100470.52;110289;1264;19521;-50
2022/05/22 03:36:47;;;;;;;;;7.00;5.67;;;;;23.59;39.75;100476.33;110290;1263;18616;-49
2022/05/22 03:39:14;;;;;;;;;6.33;6.00;;;;;23.59;39.62;100480.12;110290;1264;19056;-49
2022/05/22 03:41:41;;;;;;;;;7.00;7.00;;;;;23.59;39.67;100484.11;110337;1264;19539;-50
2022/05/22 03:44:09;;;;;;;;;5.00;4.33;;;;;23.60;39.67;100482.77;110295;1264;21945;-51
2022/05/22 03:46:36;;;;;;;;;7.33;6.00;;;;;23.60;39.70;100486.06;110287;1264;18725;-49
2022/05/22 03:49:03;;;;;;;;;7.00;7.00;;;;;23.59;39.55;100483.56;110305;1263;19753;-50
2022/05/22 03:51:31;;;;;;;;;5.67;4.33;;;;;23.60;39.66;100485.85;110319;1264;18345;-50
2022/05/22 03:53:59;;;;;;;;;5.67;5.00;;;;;23.60;39.59;100486.00;110279;1264;18914;-51
2022/05/22 03:56:26;;;;;;;;;5.67;5.67;;;;;23.60;39.70;100493.83;110350;1263;19643;-49
2022/05/22 03:58:53;;;;;;;;;6.33;5.67;;;;;23.61;39.49;100492.52;110276;1264;19025;-50
2022/05/22 04:01:21;;;;;;;;;6.00;4.33;;;;;23.62;39.55;100494.23;110265;1263;18853;-50
2022/05/22 04:03:48;;;;;;;;;5.00;5.00;;;;;23.61;39.62;100490.98;110310;1264;19536;-50
2022/05/22 04:06:15;;;;;;;;;5.33;5.00;;;;;23.61;39.59;100488.07;110300;1263;18492;-54
2022/05/22 04:08:42;;;;;;;;;6.67;6.00;;;;;23.61;39.64;100489.88;110320;1264;22345;-53
2022/05/22 04:11:09;;;;;;;;;5.33;5.33;;;;;23.61;39.49;100489.50;110288;1264;19554;-51
2022/05/22 04:13:37;;;;;;;;;6.50;6.00;;;;;23.61;39.63;100487.73;110320;1264;18693;-49
2022/05/22 04:16:04;;;;;;;;;5.67;5.67;;;;;23.61;39.58;100481.88;110253;1264;22747;-51
2022/05/22 04:18:31;;;;;;;;;8.33;6.00;;;;;23.62;39.69;100483.66;110288;1264;19834;-50
2022/05/22 04:20:58;;;;;;;;;5.00;5.00;;;;;23.62;39.67;100482.73;110321;1263;18657;-49
2022/05/22 04:26:10;;;;;;;;;6.00;5.00;;;;;23.62;39.49;100489.27;110312;1263;19965;-51
2022/05/22 04:28:38;;;;;;;;;6.50;6.00;;;;;23.62;39.38;100488.55;110287;1263;18892;-50
2022/05/22 04:31:05;;;;;;;;;6.33;6.33;;;;;23.62;39.65;100492.17;110305;1263;18706;-49
2022/05/22 04:33:32;;;;;;;;;6.00;6.00;;;;;23.63;39.55;100490.23;110272;1263;22242;-51
2022/05/22 04:35:59;;;;;;;;;5.67;5.67;;;;;23.62;39.56;100490.33;110293;1263;18694;-50
2022/05/22 04:38:27;;;;;;;;;7.67;6.67;;;;;23.63;39.45;100483.89;110308;1263;18709;-50
2022/05/22 04:40:54;;;;;;;;;7.00;6.33;;;;;23.63;39.59;100484.77;110272;1264;19818;-50
2022/05/22 04:43:21;;;;;;;;;5.33;5.33;;;;;23.63;39.46;100483.64;110241;1263;18774;-47
2022/05/22 04:45:48;;;;;;;;;5.00;5.00;;;;;23.63;39.43;100484.89;110288;1264;18977;-51
2022/05/22 04:48:15;;;;;;;;;7.33;6.67;;;;;23.63;39.47;100486.80;110298;1264;19477;-51
2022/05/22 04:50:43;;;;;;;;;6.50;6.50;;;;;23.64;39.43;100490.08;110344;1263;18649;-51
2022/05/22 04:53:10;;;;;;;;;6.67;6.00;;;;;23.64;39.36;100495.33;110284;1264;20032;-49
2022/05/22 04:55:37;;;;;;;;;10.33;9.00;;;;;23.65;39.38;100491.27;110290;1263;19573;-50
2022/05/22 04:58:05;;;;;;;;;5.00;5.00;;;;;23.65;39.38;100493.53;110291;1263;18588;-52
2022/05/22 05:00:32;;;;;;;;;6.00;5.00;;;;;23.65;39.46;100495.92;110281;1263;22291;-50
2022/05/22 05:02:59;;;;;;;;;3.00;3.00;;;;;23.66;39.49;100500.04;110302;1264;19480;-49
2022/05/22 05:05:27;;;;;;;;;5.33;5.00;;;;;23.67;39.57;100500.84;110347;1263;18658;-51
2022/05/22 05:07:55;;;;;;;;;6.67;6.67;;;;;23.66;39.46;100500.71;110299;1263;20905;-49
2022/05/22 05:10:22;;;;;;;;;6.50;6.00;;;;;23.66;39.48;100497.42;110301;1264;19667;-51
2022/05/22 05:12:50;;;;;;;;;6.00;5.00;;;;;23.67;39.35;100496.46;110329;1263;18578;-51
2022/05/22 05:15:17;;;;;;;;;5.33;5.00;;;;;23.66;39.49;100497.48;110284;1264;18841;-50
2022/05/22 05:17:44;;;;;;;;;5.33;5.33;;;;;23.66;39.48;100502.19;110343;1264;19732;-50
2022/05/22 05:20:11;;;;;;;;;5.67;5.67;;;;;23.67;39.53;100497.73;110289;1263;18495;-50
2022/05/22 05:22:39;;;;;;;;;6.00;5.50;;;;;23.66;39.64;100498.70;110234;1264;22671;-48
2022/05/22 05:25:06;;;;;;;;;8.00;7.00;;;;;23.66;39.49;100496.20;110235;1263;19555;-49
2022/05/22 05:27:33;;;;;;;;;6.00;6.00;;;;;23.67;39.50;100495.20;110264;1263;18367;-50
2022/05/22 05:30:00;;;;;;;;;6.00;6.00;;;;;23.67;39.31;100496.05;110300;1263;19608;-47
2022/05/22 05:32:28;;;;;;;;;5.00;5.00;;;;;23.70;39.49;100501.17;110308;1264;19682;-48
2022/05/22 05:34:55;;;;;;;;;3.00;3.00;;;;;23.72;39.47;100496.90;110292;1264;20220;-50
2022/05/22 05:37:22;;;;;;;;;5.33;5.33;;;;;23.75;39.40;100501.25;110294;1263;22842;-50
2022/05/22 05:39:49;;;;;;;;;4.00;4.00;;;;;23.76;39.36;100506.02;110277;1263;19650;-50
2022/05/22 05:42:17;;;;;;;;;5.50;5.00;;;;;23.77;39.38;100508.88;110163;1264;209168;-50
2022/05/22 05:44:44;;;;;;;;;9.00;8.00;;;;;23.76;39.26;100508.54;110329;1264;19411;-50
2022/05/22 05:47:11;;;;;;;;;5.67;5.67;;;;;23.75;39.35;100511.05;110277;1263;21810;-50
2022/05/22 05:49:38;;;;;;;;;6.00;5.67;;;;;23.76;39.30;100514.67;110273;1264;18446;-49
2022/05/22 05:52:05;;;;;;;;;5.00;5.00;;;;;23.75;39.32;100515.48;110296;1263;18896;-51
2022/05/22 05:54:33;;;;;;;;;6.00;5.00;;;;;23.76;39.33;100514.27;110290;1264;19652;-51
2022/05/22 05:57:00;;;;;;;;;5.00;5.00;;;;;23.77;39.26;100510.85;110277;1264;19321;-49
2022/05/22 05:59:27;;;;;;;;;6.00;6.00;;;;;23.77;39.37;100512.49;110337;1263;19062;-50
2022/05/22 06:01:54;;;;;;;;;6.00;6.00;;;;;23.78;39.30;100514.70;110284;1263;19585;-52
2022/05/22 06:04:22;;;;;;;;;8.00;6.33;;;;;23.77;39.13;100513.00;110340;1264;20408;-52
2022/05/22 06:06:49;;;;;;;;;5.00;5.00;;;;;23.78;39.16;100513.67;110283;1264;19023;-50
2022/05/22 06:09:16;;;;;;;;;3.00;3.00;;;;;23.77;39.31;100513.71;110300;1263;22445;-50
2022/05/22 06:11:44;;;;;;;;;5.00;5.00;;;;;23.77;39.25;100514.81;110322;1264;22804;-50
2022/05/22 06:14:11;;;;;;;;;5.00;5.00;;;;;23.79;39.15;100516.46;110295;1263;19704;-51
2022/05/22 06:16:38;;;;;;;;;7.00;5.00;;;;;23.80;39.25;100519.22;110266;1263;22220;-50
2022/05/22 06:19:06;;;;;;;;;7.00;6.00;;;;;23.81;39.10;100516.10;110290;1264;18503;-49
2022/05/22 06:21:33;;;;;;;;;6.00;5.33;;;;;23.83;39.12;100517.16;110306;1263;18726;-49
2022/05/22 06:24:00;;;;;;;;;7.00;6.67;;;;;23.83;39.20;100518.05;110260;1264;19508;-50
2022/05/22 06:26:27;;;;;;;;;6.00;6.00;;;;;23.82;39.25;100515.23;110296;1264;18498;-51
2022/05/22 06:28:55;;;;;;;;;7.00;5.33;;;;;23.83;39.20;100510.80;110233;1264;18793;-52
2022/05/22 06:31:24;;;;;;;;;6.50;6.50;;;;;23.85;39.09;100507.45;110276;1264;19577;-47
2022/05/22 06:33:51;;;;;;;;;5.00;5.00;;;;;23.87;39.08;100503.33;110269;1263;18471;-51
2022/05/22 06:36:18;;;;;;;;;5.33;5.33;;;;;23.90;39.03;100499.77;110265;1263;18857;-49
2022/05/22 06:41:30;;;;;;;;;6.00;5.50;;;;;23.95;38.92;100510.98;110329;1263;18511;-51
2022/05/22 06:43:57;;;;;;;;;6.00;6.00;;;;;23.86;38.94;100520.73;110306;1264;18776;-51
2022/05/22 06:46:25;;;;;;;;;6.00;6.00;;;;;23.60;38.58;100519.24;110269;1263;19716;-49
2022/05/22 06:48:52;;;;;;;;;5.00;5.00;;;;;23.35;39.09;100514.52;110263;1264;22806;-48
2022/05/22 06:51:19;;;;;;;;;5.50;4.00;;;;;23.14;38.80;100514.95;110269;1263;19150;-49
2022/05/22 06:53:47;;;;;;;;;4.33;4.33;;;;;23.04;39.02;100518.84;110299;1263;19527;-51
2022/05/22 06:56:14;;;;;;;;;5.00;5.00;;;;;22.95;38.96;100520.94;110249;1264;22348;-50
2022/05/22 06:58:41;;;;;;;;;6.00;6.00;;;;;22.87;38.93;100523.83;110258;1264;19263;-51
2022/05/22 07:01:09;;;;;;;;;5.00;5.00;;;;;22.78;39.22;100526.41;110283;1264;20117;-51
2022/05/22 07:03:36;;;;;;;;;7.00;7.00;;;;;22.72;39.06;100523.29;110306;1264;18829;-50
2022/05/22 07:06:03;;;;;;;;;6.33;6.33;;;;;22.69;39.09;100528.21;110298;1264;18932;-49
2022/05/22 07:08:31;;;;;;;;;5.00;5.00;;;;;22.63;39.39;100526.45;110309;1263;23667;-50
2022/05/22 07:13:43;;;;;;;;;9.00;9.00;;;;;22.52;39.55;100525.73;110269;1263;19231;-49
2022/05/22 07:16:10;;;;;;;;;10.50;10.50;;;;;22.52;39.52;100530.36;110276;1264;19504;-49
2022/05/22 07:18:38;;;;;;;;;11.00;10.33;;;;;22.56;39.52;100530.05;110297;1263;18939;-51
2022/05/22 07:21:05;;;;;;;;;10.00;10.00;;;;;22.57;39.61;100529.94;110304;1264;18954;-48
2022/05/22 07:23:32;;;;;;;;;9.50;9.50;;;;;22.57;39.64;100526.70;110351;1264;19628;-50
2022/05/22 07:25:59;;;;;;;;;9.00;9.00;;;;;22.58;39.65;100528.91;110266;1264;18816;-50
2022/05/22 07:28:27;;;;;;;;;8.33;8.00;;;;;22.51;39.83;100527.23;110291;1264;18826;-49
2022/05/22 07:30:54;;;;;;;;;7.33;6.33;;;;;22.51;39.77;100527.82;110250;1263;19678;-52
2022/05/22 07:33:21;;;;;;;;;6.00;6.00;;;;;22.50;39.90;100525.75;110282;1264;18416;-49
2022/05/22 07:35:48;;;;;;;;;9.00;9.00;;;;;22.47;39.80;100529.75;110317;1264;18881;-50
2022/05/22 07:38:16;;;;;;;;;25.67;21.67;;;;;22.44;40.09;100529.85;110303;1263;20031;-50
2022/05/22 07:40:43;;;;;;;;;19.67;18.67;;;;;22.38;40.31;100534.52;110267;1264;22563;-50
2022/05/22 07:43:10;;;;;;;;;17.00;14.00;;;;;22.31;40.27;100533.61;110262;1263;18833;-51
2022/05/22 07:45:37;;;;;;;;;17.00;13.67;;;;;22.36;40.55;100536.05;110263;1264;19847;-49
2022/05/22 07:48:05;;;;;;;;;17.00;15.00;;;;;22.58;40.00;100532.52;110146;1264;18852;-49
2022/05/22 07:50:32;;;;;;;;;17.00;13.67;;;;;22.80;39.52;100528.67;110323;1264;20136;-50
2022/05/22 07:52:59;;;;;;;;;17.00;14.33;;;;;22.97;39.32;100526.50;110300;1263;19531;-51
2022/05/22 07:55:26;;;;;;;;;19.00;18.00;;;;;23.09;39.17;100521.11;110285;1264;18698;-50
2022/05/22 07:57:54;;;;;;;;;22.00;19.33;;;;;23.17;39.20;100524.99;110268;1263;18971;-52
2022/05/22 08:00:21;;;;;;;;;17.67;14.67;;;;;23.24;39.07;100521.80;110198;1263;19849;-49
2022/05/22 08:02:48;;;;;;;;;23.50;19.00;;;;;23.27;39.12;100517.91;110162;1264;18913;-50
2022/05/22 08:05:17;;;;;;;;;20.00;17.00;;;;;23.29;39.16;100519.31;110279;1264;31108;-50
2022/05/22 08:07:44;;;;;;;;;16.00;16.00;;;;;23.30;39.12;100520.63;110268;1264;19621;-50
2022/05/22 08:10:11;;;;;;;;;15.67;14.00;;;;;23.31;39.18;100519.52;110289;1264;23453;-51
2022/05/22 08:12:38;;;;;;;;;15.00;12.00;;;;;23.34;39.23;100521.12;110291;1264;21539;-50
2022/05/22 08:15:06;;;;;;;;;15.00;14.33;;;;;23.38;39.17;100518.42;110296;1263;19553;-48
2022/05/22 08:17:36;;;;;;;;;16.33;15.67;;;;;23.42;39.25;100524.92;110319;1264;18934;-48
2022/05/22 08:20:04;;;;;;;;;15.00;14.00;;;;;23.45;39.10;100517.92;110280;1264;19069;-50
2022/05/22 08:22:32;;;;;;;;;11.33;11.00;;;;;23.46;39.00;100516.23;110269;1263;19557;-48
2022/05/22 08:24:59;;;;;;;;;14.33;13.33;;;;;23.48;39.07;100525.60;110301;1264;18805;-51
2022/05/22 08:27:27;;;;;;;;;11.50;11.00;;;;;23.47;39.24;100522.43;110281;1264;19295;-51
2022/05/22 08:29:54;;;;;;;;;12.00;11.00;;;;;23.45;39.16;100524.61;110350;1264;19528;-49
2022/05/22 08:32:22;;;;;;;;;10.00;10.00;;;;;23.45;39.24;100525.41;110290;1262;19037;-49
2022/05/22 08:34:49;;;;;;;;;10.00;10.00;;;;;23.45;39.30;100526.08;110260;1263;21380;-50
2022/05/22 08:37:17;;;;;;;;;12.33;10.67;;;;;23.45;39.34;100518.77;110292;1263;22152;-50
2022/05/22 08:39:44;;;;;;;;;10.67;9.33;;;;;23.47;39.38;100516.79;110295;1264;18853;-49
2022/05/22 08:42:11;;;;;;;;;9.67;7.00;;;;;23.49;39.32;100510.30;110325;1263;18801;-49
2022/05/22 08:44:39;;;;;;;;;10.67;10.00;;;;;23.51;39.23;100519.34;110328;1264;19540;-51
2022/05/22 08:47:06;;;;;;;;;10.50;10.00;;;;;23.52;39.34;100519.98;110273;1264;18648;-49
2022/05/22 08:49:33;;;;;;;;;10.00;10.00;;;;;23.52;39.26;100519.02;110246;1264;18826;-49
2022/05/22 08:52:00;;;;;;;;;7.00;7.00;;;;;23.52;39.34;100515.94;110241;1264;22116;-53
2022/05/22 08:54:28;;;;;;;;;11.33;9.00;;;;;23.52;39.40;100516.31;110265;1263;18772;-49
2022/05/22 08:59:40;;;;;;;;;7.00;7.00;;;;;23.51;39.43;100528.40;110348;1264;22727;-50
2022/05/22 09:02:10;;;;;;;;;10.00;9.00;;;;;23.51;39.38;100526.50;110280;1264;18485;-50
2022/05/22 09:04:37;;;;;;;;;9.00;6.00;;;;;23.51;39.43;100521.03;110241;1263;19080;-49
2022/05/22 09:07:05;;;;;;;;;11.00;10.00;;;;;23.52;39.46;100520.61;110279;1264;20801;-49
2022/05/22 09:09:32;;;;;;;;;9.33;9.00;;;;;23.54;39.36;100521.17;110265;1264;18468;-52
2022/05/22 09:11:59;;;;;;;;;9.00;9.00;;;;;23.54;39.36;100517.45;110320;1263;18822;-49
2022/05/22 09:14:26;;;;;;;;;8.00;8.00;;;;;23.57;39.33;100512.94;110279;1264;19735;-49
2022/05/22 09:16:54;;;;;;;;;8.33;8.33;;;;;23.57;39.44;100520.35;110239;1263;19755;-51
2022/05/22 09:19:21;;;;;;;;;7.00;6.00;;;;;23.57;39.49;100519.42;110258;1263;19195;-51
2022/05/22 09:21:48;;;;;;;;;7.00;6.50;;;;;23.57;39.36;100520.40;110262;1263;19768;-47
2022/05/22 09:24:16;;;;;;;;;9.00;8.33;;;;;23.57;39.24;100519.30;110236;1264;18500;-50
2022/05/22 09:26:43;;;;;;;;;8.00;6.00;;;;;23.56;39.15;100520.48;110310;1264;20120;-47
2022/05/22 09:29:11;;;;;;;;;8.67;8.33;;;;;23.56;39.26;100518.84;110238;1263;19622;-49
2022/05/22 09:31:39;;;;;;;;;7.00;6.00;;;;;23.58;39.33;100517.15;110307;1263;18520;-47
2022/05/22 09:34:06;;;;;;;;;6.67;6.67;;;;;23.58;39.23;100512.70;110296;1264;18926;-54
2022/05/22 09:36:33;;;;;;;;;6.00;5.67;;;;;23.59;39.23;100514.05;110293;1264;19541;-50
2022/05/22 09:39:00;;;;;;;;;5.67;5.67;;;;;23.60;39.12;100515.27;110341;1263;18498;-51
2022/05/22 09:41:28;;;;;;;;;6.00;6.00;;;;;23.61;39.23;100517.31;110307;1264;19133;-51
2022/05/22 09:43:55;;;;;;;;;7.00;7.00;;;;;23.62;39.28;100517.38;110284;1263;19552;-49
2022/05/22 09:46:22;;;;;;;;;8.33;6.67;;;;;23.62;39.19;100517.72;110280;1264;18420;-50
2022/05/22 09:48:51;;;;;;;;;7.00;7.00;;;;;23.62;39.12;100523.23;110313;1263;18801;-52
2022/05/22 09:51:19;;;;;;;;;8.67;7.33;;;;;23.61;39.27;100522.13;110334;1263;19600;-50
2022/05/22 09:53:46;;;;;;;;;6.00;6.00;;;;;23.61;39.11;100523.05;110321;1263;18462;-50
2022/05/22 09:56:13;;;;;;;;;9.50;6.50;;;;;23.62;39.15;100524.45;110304;1263;18790;-51
2022/05/22 09:58:41;;;;;;;;;8.00;8.00;;;;;23.63;39.14;100523.08;110270;1263;19705;-50
2022/05/22 10:01:10;;;;;;;;;7.00;7.00;;;;;23.63;39.10;100519.66;110299;1264;22848;-50
2022/05/22 10:03:37;;;;;;;;;6.67;6.00;;;;;23.63;39.21;100524.55;110311;1264;18733;-52
2022/05/22 10:06:04;;;;;;;;;7.00;6.50;;;;;23.63;39.08;100527.91;110300;1263;19635;-52
2022/05/22 10:08:31;;;;;;;;;6.50;5.50;;;;;23.64;38.95;100530.23;110332;1264;20830;-50
2022/05/22 10:10:59;;;;;;;;;6.50;6.50;;;;;23.64;39.22;100530.36;110314;1264;18800;-50
2022/05/22 10:13:26;;;;;;;;;6.00;6.00;;;;;23.65;39.12;100523.70;110297;1263;20015;-50
2022/05/22 10:15:53;;;;;;;;;6.50;5.50;;;;;23.64;39.13;100525.61;110304;1264;18400;-52
2022/05/22 10:18:20;;;;;;;;;7.67;7.00;;;;;23.64;39.05;100527.12;110293;1262;18835;-50
2022/05/22 10:20:48;;;;;;;;;7.00;7.00;;;;;23.64;39.19;100529.85;110341;1263;19977;-50
2022/05/22 10:23:16;;;;;;;;;6.33;6.00;;;;;23.63;39.04;100529.35;110292;1263;20026;-50
2022/05/22 10:25:43;;;;;;;;;6.00;5.50;;;;;23.64;39.27;100536.04;110295;1264;22721;-50
2022/05/22 10:28:11;;;;;;;;;5.00;5.00;;;;;23.63;39.09;100532.63;110295;1264;19621;-50
2022/05/22 10:30:38;;;;;;;;;6.33;6.33;;;;;23.63;39.07;100529.17;110278;1264;18633;-50
2022/05/22 10:33:05;;;;;;;;;7.50;5.50;;;;;23.64;39.11;100532.34;110310;1262;18720;-53
2022/05/22 10:35:32;;;;;;;;;7.67;7.00;;;;;23.65;39.22;100527.85;110329;1264;21209;-49
2022/05/22 10:37:59;;;;;;;;;8.00;6.67;;;;;23.66;39.18;100526.14;110277;1264;19035;-49
2022/05/22 10:42:44;;;;;;;;;7.67;7.67;;;;;23.67;39.16;100530.06;110296;1264;18739;-49
2022/05/22 10:43:14;;;;;;;;;6.67;6.67;;;;;23.66;39.24;100524.53;110276;1263;19566;-51
2022/05/22 10:45:41;;;;;;;;;10.33;7.00;;;;;23.66;39.33;100528.53;110305;1264;18520;-50
2022/05/22 10:48:09;;;;;;;;;8.67;7.67;;;;;23.66;39.21;100529.83;110291;1263;18708;-50
2022/05/22 10:50:36;;;;;;;;;6.00;5.33;;;;;23.66;39.16;100531.23;110329;1264;20678;-50
2022/05/22 10:53:03;;;;;;;;;9.67;7.00;;;;;23.66;39.12;100537.11;110270;1263;18641;-50
2022/05/22 10:55:31;;;;;;;;;5.00;3.00;;;;;23.66;39.14;100536.94;110290;1264;18896;-51
2022/05/22 10:57:58;;;;;;;;;7.00;5.50;;;;;23.65;39.16;100534.92;110294;1264;19502;-51
2022/05/22 11:00:25;;;;;;;;;6.00;5.67;;;;;23.67;39.19;100539.70;110275;1264;18413;-48
2022/05/22 11:02:53;;;;;;;;;6.67;6.67;;;;;23.67;39.28;100539.66;110332;1264;18717;-53
2022/05/22 11:05:20;;;;;;;;;6.00;5.00;;;;;23.68;39.22;100538.22;110353;1261;19576;-51
2022/05/22 11:07:47;;;;;;;;;6.00;6.00;;;;;23.68;39.16;100536.59;110316;1262;18448;-46
2022/05/22 11:10:14;;;;;;;;;6.50;6.00;;;;;23.68;39.25;100535.36;110312;1262;22711;-49
2022/05/22 11:12:42;;;;;;;;;5.67;5.67;;;;;23.67;39.19;100536.71;110306;1262;21865;-50
2022/05/22 11:15:09;;;;;;;;;4.33;4.33;;;;;23.67;39.15;100540.54;110340;1262;18641;-50
2022/05/22 11:17:37;;;;;;;;;5.00;5.00;;;;;23.68;39.14;100541.97;110367;1262;21930;-51
2022/05/22 11:20:04;;;;;;;;;4.33;4.33;;;;;23.68;39.24;100542.86;110306;1261;22794;-49
2022/05/22 11:22:31;;;;;;;;;5.00;5.00;;;;;23.68;39.15;100543.31;110336;1262;18408;-50
2022/05/22 11:24:58;;;;;;;;;7.00;6.00;;;;;23.69;39.30;100544.33;110333;1262;18770;-50